sensor_id;sensor_type;location;lat;lon;timestamp;temperature;humidity
74364;DHT22;62797;49.740;10.154;2024-03-06T00:01:26;7.00;79.60
74364;DHT22;62797;49.740;10.154;2024-03-06T00:04:05;7.00;79.60
74364;DHT22;62797;49.740;10.154;2024-03-06T00:06:38;7.00;79.80
74364;DHT22;62797;49.740;10.154;2024-03-06T00:09:11;7.00;79.70
74364;DHT22;62797;49.740;10.154;2024-03-06T00:11:44;7.00;79.20
74364;DHT22;62797;49.740;10.154;2024-03-06T00:14:16;7.00;79.20
74364;DHT22;62797;49.740;10.154;2024-03-06T00:16:48;7.00;79.20
74364;DHT22;62797;49.740;10.154;2024-03-06T00:19:24;6.90;78.90
74364;DHT22;62797;49.740;10.154;2024-03-06T00:21:56;6.90;78.30
74364;DHT22;62797;49.740;10.154;2024-03-06T00:24:28;6.80;78.10
74364;DHT22;62797;49.740;10.154;2024-03-06T00:27:08;6.70;78.10
74364;DHT22;62797;49.740;10.154;2024-03-06T00:29:43;6.60;78.90
74364;DHT22;62797;49.740;10.154;2024-03-06T00:32:15;6.50;79.50
74364;DHT22;62797;49.740;10.154;2024-03-06T00:35:06;6.50;80.20
74364;DHT22;62797;49.740;10.154;2024-03-06T00:37:39;6.50;79.80
74364;DHT22;62797;49.740;10.154;2024-03-06T00:40:12;6.50;79.00
74364;DHT22;62797;49.740;10.154;2024-03-06T00:42:45;6.50;79.70
74364;DHT22;62797;49.740;10.154;2024-03-06T00:45:17;6.50;79.40
74364;DHT22;62797;49.740;10.154;2024-03-06T00:47:49;6.50;80.10
74364;DHT22;62797;49.740;10.154;2024-03-06T00:50:21;6.50;79.70
74364;DHT22;62797;49.740;10.154;2024-03-06T00:52:54;6.60;80.20
74364;DHT22;62797;49.740;10.154;2024-03-06T00:55:26;6.50;80.20
74364;DHT22;62797;49.740;10.154;2024-03-06T00:57:58;6.60;80.20
74364;DHT22;62797;49.740;10.154;2024-03-06T01:00:30;6.70;79.90
74364;DHT22;62797;49.740;10.154;2024-03-06T01:03:03;6.70;79.80
74364;DHT22;62797;49.740;10.154;2024-03-06T01:05:35;6.70;79.40
74364;DHT22;62797;49.740;10.154;2024-03-06T01:08:14;6.80;79.00
74364;DHT22;62797;49.740;10.154;2024-03-06T01:10:51;6.80;78.90
74364;DHT22;62797;49.740;10.154;2024-03-06T01:13:23;6.80;78.80
74364;DHT22;62797;49.740;10.154;2024-03-06T01:15:56;6.80;78.40
74364;DHT22;62797;49.740;10.154;2024-03-06T01:18:28;6.80;78.20
74364;DHT22;62797;49.740;10.154;2024-03-06T01:21:00;6.80;78.20
74364;DHT22;62797;49.740;10.154;2024-03-06T01:23:32;6.80;78.30
74364;DHT22;62797;49.740;10.154;2024-03-06T01:26:04;6.90;78.10
74364;DHT22;62797;49.740;10.154;2024-03-06T01:28:36;6.90;77.70
74364;DHT22;62797;49.740;10.154;2024-03-06T01:31:13;6.90;77.10
74364;DHT22;62797;49.740;10.154;2024-03-06T01:33:45;6.90;77.20
74364;DHT22;62797;49.740;10.154;2024-03-06T01:36:19;7.00;77.30
74364;DHT22;62797;49.740;10.154;2024-03-06T01:38:51;6.90;77.80
74364;DHT22;62797;49.740;10.154;2024-03-06T01:41:23;7.00;77.60
74364;DHT22;62797;49.740;10.154;2024-03-06T01:43:55;6.90;77.80
74364;DHT22;62797;49.740;10.154;2024-03-06T01:46:31;7.00;77.90
74364;DHT22;62797;49.740;10.154;2024-03-06T01:49:03;6.90;77.60
74364;DHT22;62797;49.740;10.154;2024-03-06T01:51:36;6.90;77.70
74364;DHT22;62797;49.740;10.154;2024-03-06T01:54:08;6.90;77.60
74364;DHT22;62797;49.740;10.154;2024-03-06T01:56:45;6.90;77.70
74364;DHT22;62797;49.740;10.154;2024-03-06T01:59:19;6.80;78.10
74364;DHT22;62797;49.740;10.154;2024-03-06T02:01:54;6.90;78.30
74364;DHT22;62797;49.740;10.154;2024-03-06T02:04:26;6.90;78.50
74364;DHT22;62797;49.740;10.154;2024-03-06T02:07:01;6.90;78.80
74364;DHT22;62797;49.740;10.154;2024-03-06T02:09:34;6.90;78.40
74364;DHT22;62797;49.740;10.154;2024-03-06T02:12:07;6.90;78.00
74364;DHT22;62797;49.740;10.154;2024-03-06T02:14:43;6.90;77.90
74364;DHT22;62797;49.740;10.154;2024-03-06T02:17:15;6.90;77.70
74364;DHT22;62797;49.740;10.154;2024-03-06T02:19:47;6.90;77.60
74364;DHT22;62797;49.740;10.154;2024-03-06T02:22:19;6.80;77.70
74364;DHT22;62797;49.740;10.154;2024-03-06T02:25:10;6.80;77.30
74364;DHT22;62797;49.740;10.154;2024-03-06T02:27:46;6.80;77.60
74364;DHT22;62797;49.740;10.154;2024-03-06T02:30:20;6.80;77.40
74364;DHT22;62797;49.740;10.154;2024-03-06T02:36:22;6.80;77.60
74364;DHT22;62797;49.740;10.154;2024-03-06T02:38:56;6.80;78.20
74364;DHT22;62797;49.740;10.154;2024-03-06T02:41:28;6.70;78.60
74364;DHT22;62797;49.740;10.154;2024-03-06T02:44:02;6.70;78.40
74364;DHT22;62797;49.740;10.154;2024-03-06T02:46:35;6.80;78.00
74364;DHT22;62797;49.740;10.154;2024-03-06T02:49:07;6.70;78.20
74364;DHT22;62797;49.740;10.154;2024-03-06T02:51:39;6.70;78.60
74364;DHT22;62797;49.740;10.154;2024-03-06T02:54:11;6.60;78.90
74364;DHT22;62797;49.740;10.154;2024-03-06T02:56:43;6.60;79.00
74364;DHT22;62797;49.740;10.154;2024-03-06T02:59:15;6.60;78.60
74364;DHT22;62797;49.740;10.154;2024-03-06T03:01:47;6.50;79.60
74364;DHT22;62797;49.740;10.154;2024-03-06T03:04:20;6.40;79.60
74364;DHT22;62797;49.740;10.154;2024-03-06T03:06:52;6.40;79.90
74364;DHT22;62797;49.740;10.154;2024-03-06T03:09:24;6.30;80.20
74364;DHT22;62797;49.740;10.154;2024-03-06T03:11:56;6.40;80.30
74364;DHT22;62797;49.740;10.154;2024-03-06T03:14:30;6.40;79.80
74364;DHT22;62797;49.740;10.154;2024-03-06T03:17:02;6.40;80.00
74364;DHT22;62797;49.740;10.154;2024-03-06T03:19:34;6.40;79.70
74364;DHT22;62797;49.740;10.154;2024-03-06T03:22:07;6.40;79.50
74364;DHT22;62797;49.740;10.154;2024-03-06T03:24:42;6.40;79.40
74364;DHT22;62797;49.740;10.154;2024-03-06T03:27:16;6.40;79.50
74364;DHT22;62797;49.740;10.154;2024-03-06T03:29:48;6.30;79.80
74364;DHT22;62797;49.740;10.154;2024-03-06T03:32:20;6.30;80.20
74364;DHT22;62797;49.740;10.154;2024-03-06T03:34:53;6.30;79.80
74364;DHT22;62797;49.740;10.154;2024-03-06T03:37:25;6.30;79.50
74364;DHT22;62797;49.740;10.154;2024-03-06T03:39:57;6.20;79.40
74364;DHT22;62797;49.740;10.154;2024-03-06T03:42:29;6.30;78.90
74364;DHT22;62797;49.740;10.154;2024-03-06T03:45:02;6.30;79.20
74364;DHT22;62797;49.740;10.154;2024-03-06T03:47:35;6.20;79.00
74364;DHT22;62797;49.740;10.154;2024-03-06T03:50:07;6.20;79.00
74364;DHT22;62797;49.740;10.154;2024-03-06T03:52:40;6.20;80.10
74364;DHT22;62797;49.740;10.154;2024-03-06T03:55:14;6.20;80.00
74364;DHT22;62797;49.740;10.154;2024-03-06T03:57:46;6.20;80.00
74364;DHT22;62797;49.740;10.154;2024-03-06T04:00:19;6.20;80.20
74364;DHT22;62797;49.740;10.154;2024-03-06T04:02:51;6.30;79.90
74364;DHT22;62797;49.740;10.154;2024-03-06T04:05:30;6.30;79.40
74364;DHT22;62797;49.740;10.154;2024-03-06T04:08:06;6.30;79.70
74364;DHT22;62797;49.740;10.154;2024-03-06T04:10:38;6.40;79.50
74364;DHT22;62797;49.740;10.154;2024-03-06T04:13:11;6.40;79.30
74364;DHT22;62797;49.740;10.154;2024-03-06T04:15:44;6.40;78.90
74364;DHT22;62797;49.740;10.154;2024-03-06T04:18:17;6.40;78.40
74364;DHT22;62797;49.740;10.154;2024-03-06T04:20:49;6.40;78.50
74364;DHT22;62797;49.740;10.154;2024-03-06T04:23:22;6.40;78.30
74364;DHT22;62797;49.740;10.154;2024-03-06T04:25:54;6.40;78.60
74364;DHT22;62797;49.740;10.154;2024-03-06T04:28:26;6.40;78.80
74364;DHT22;62797;49.740;10.154;2024-03-06T04:30:58;6.40;78.90
74364;DHT22;62797;49.740;10.154;2024-03-06T04:33:49;6.30;79.20
74364;DHT22;62797;49.740;10.154;2024-03-06T04:36:21;6.40;79.50
74364;DHT22;62797;49.740;10.154;2024-03-06T04:38:53;6.40;80.00
74364;DHT22;62797;49.740;10.154;2024-03-06T04:41:25;6.40;79.60
74364;DHT22;62797;49.740;10.154;2024-03-06T04:43:57;6.40;78.80
74364;DHT22;62797;49.740;10.154;2024-03-06T04:46:31;6.30;78.90
74364;DHT22;62797;49.740;10.154;2024-03-06T04:49:03;6.30;79.70
74364;DHT22;62797;49.740;10.154;2024-03-06T04:51:35;6.30;79.90
74364;DHT22;62797;49.740;10.154;2024-03-06T04:54:07;6.40;79.70
74364;DHT22;62797;49.740;10.154;2024-03-06T04:56:40;6.40;79.60
74364;DHT22;62797;49.740;10.154;2024-03-06T04:59:12;6.40;79.10
74364;DHT22;62797;49.740;10.154;2024-03-06T05:01:45;6.40;79.50
74364;DHT22;62797;49.740;10.154;2024-03-06T05:04:17;6.50;78.90
74364;DHT22;62797;49.740;10.154;2024-03-06T05:06:49;6.50;78.70
74364;DHT22;62797;49.740;10.154;2024-03-06T05:09:21;6.50;79.00
74364;DHT22;62797;49.740;10.154;2024-03-06T05:11:56;6.50;79.10
74364;DHT22;62797;49.740;10.154;2024-03-06T05:14:28;6.50;79.10
74364;DHT22;62797;49.740;10.154;2024-03-06T05:17:00;6.50;79.00
74364;DHT22;62797;49.740;10.154;2024-03-06T05:19:32;6.50;78.90
74364;DHT22;62797;49.740;10.154;2024-03-06T05:22:04;6.50;78.70
74364;DHT22;62797;49.740;10.154;2024-03-06T05:24:37;6.50;78.50
74364;DHT22;62797;49.740;10.154;2024-03-06T05:27:09;6.50;78.60
74364;DHT22;62797;49.740;10.154;2024-03-06T05:29:46;6.50;78.50
74364;DHT22;62797;49.740;10.154;2024-03-06T05:32:18;6.50;78.60
74364;DHT22;62797;49.740;10.154;2024-03-06T05:34:51;6.50;78.10
74364;DHT22;62797;49.740;10.154;2024-03-06T05:37:23;6.50;78.50
74364;DHT22;62797;49.740;10.154;2024-03-06T05:39:55;6.50;78.30
74364;DHT22;62797;49.740;10.154;2024-03-06T05:42:27;6.50;78.30
74364;DHT22;62797;49.740;10.154;2024-03-06T05:44:59;6.50;78.10
74364;DHT22;62797;49.740;10.154;2024-03-06T05:47:37;6.50;78.20
74364;DHT22;62797;49.740;10.154;2024-03-06T05:50:10;6.50;78.70
74364;DHT22;62797;49.740;10.154;2024-03-06T05:52:45;6.50;78.60
74364;DHT22;62797;49.740;10.154;2024-03-06T05:55:19;6.50;78.50
74364;DHT22;62797;49.740;10.154;2024-03-06T05:57:51;6.50;78.80
74364;DHT22;62797;49.740;10.154;2024-03-06T06:00:25;6.50;78.20
74364;DHT22;62797;49.740;10.154;2024-03-06T06:02:57;6.40;78.10
74364;DHT22;62797;49.740;10.154;2024-03-06T06:05:29;6.30;78.60
74364;DHT22;62797;49.740;10.154;2024-03-06T06:08:09;6.30;79.40
74364;DHT22;62797;49.740;10.154;2024-03-06T06:10:42;6.30;79.70
74364;DHT22;62797;49.740;10.154;2024-03-06T06:13:14;6.20;79.80
74364;DHT22;62797;49.740;10.154;2024-03-06T06:15:46;6.20;80.20
74364;DHT22;62797;49.740;10.154;2024-03-06T06:18:18;6.20;80.40
74364;DHT22;62797;49.740;10.154;2024-03-06T06:20:50;6.30;80.70
74364;DHT22;62797;49.740;10.154;2024-03-06T06:23:23;6.40;80.20
74364;DHT22;62797;49.740;10.154;2024-03-06T06:25:56;6.40;80.20
74364;DHT22;62797;49.740;10.154;2024-03-06T06:28:28;6.50;80.40
74364;DHT22;62797;49.740;10.154;2024-03-06T06:31:01;6.50;80.20
74364;DHT22;62797;49.740;10.154;2024-03-06T06:33:34;6.60;79.90
74364;DHT22;62797;49.740;10.154;2024-03-06T06:36:07;6.60;79.70
74364;DHT22;62797;49.740;10.154;2024-03-06T06:38:39;6.60;79.00
74364;DHT22;62797;49.740;10.154;2024-03-06T06:41:18;6.60;79.20
74364;DHT22;62797;49.740;10.154;2024-03-06T06:43:51;6.70;78.80
74364;DHT22;62797;49.740;10.154;2024-03-06T06:46:24;6.70;78.50
74364;DHT22;62797;49.740;10.154;2024-03-06T06:48:59;6.80;78.40
74364;DHT22;62797;49.740;10.154;2024-03-06T06:51:32;6.80;78.40
74364;DHT22;62797;49.740;10.154;2024-03-06T06:54:04;6.90;78.50
74364;DHT22;62797;49.740;10.154;2024-03-06T06:56:36;6.90;78.40
74364;DHT22;62797;49.740;10.154;2024-03-06T06:59:08;7.00;78.20
74364;DHT22;62797;49.740;10.154;2024-03-06T07:01:40;7.00;78.50
74364;DHT22;62797;49.740;10.154;2024-03-06T07:04:16;7.10;78.40
74364;DHT22;62797;49.740;10.154;2024-03-06T07:06:51;7.20;77.70
74364;DHT22;62797;49.740;10.154;2024-03-06T07:09:30;7.20;77.60
74364;DHT22;62797;49.740;10.154;2024-03-06T07:12:02;7.20;77.50
74364;DHT22;62797;49.740;10.154;2024-03-06T07:14:37;7.30;78.00
74364;DHT22;62797;49.740;10.154;2024-03-06T07:17:10;7.40;77.40
74364;DHT22;62797;49.740;10.154;2024-03-06T07:19:42;7.40;77.70
74364;DHT22;62797;49.740;10.154;2024-03-06T07:22:14;7.40;77.00
74364;DHT22;62797;49.740;10.154;2024-03-06T07:24:46;7.50;76.80
74364;DHT22;62797;49.740;10.154;2024-03-06T07:27:18;7.50;77.80
74364;DHT22;62797;49.740;10.154;2024-03-06T07:29:58;7.50;78.00
74364;DHT22;62797;49.740;10.154;2024-03-06T07:32:37;7.50;77.20
74364;DHT22;62797;49.740;10.154;2024-03-06T07:35:09;7.50;77.30
74364;DHT22;62797;49.740;10.154;2024-03-06T07:37:42;7.60;77.70
74364;DHT22;62797;49.740;10.154;2024-03-06T07:40:16;7.60;77.20
74364;DHT22;62797;49.740;10.154;2024-03-06T07:42:49;7.60;77.80
74364;DHT22;62797;49.740;10.154;2024-03-06T07:45:21;7.70;77.20
74364;DHT22;62797;49.740;10.154;2024-03-06T07:47:53;7.70;77.60
74364;DHT22;62797;49.740;10.154;2024-03-06T07:50:26;7.70;77.30
74364;DHT22;62797;49.740;10.154;2024-03-06T07:52:59;7.80;78.50
74364;DHT22;62797;49.740;10.154;2024-03-06T07:55:32;7.80;78.90
74364;DHT22;62797;49.740;10.154;2024-03-06T07:58:12;7.90;78.10
74364;DHT22;62797;49.740;10.154;2024-03-06T08:00:53;8.00;78.40
74364;DHT22;62797;49.740;10.154;2024-03-06T08:03:27;7.90;77.30
74364;DHT22;62797;49.740;10.154;2024-03-06T08:06:07;7.90;78.00
74364;DHT22;62797;49.740;10.154;2024-03-06T08:08:40;7.80;76.10
74364;DHT22;62797;49.740;10.154;2024-03-06T08:11:16;7.80;77.40
74364;DHT22;62797;49.740;10.154;2024-03-06T08:13:49;7.90;78.00
74364;DHT22;62797;49.740;10.154;2024-03-06T08:16:21;7.90;77.40
74364;DHT22;62797;49.740;10.154;2024-03-06T08:18:55;7.90;78.40
74364;DHT22;62797;49.740;10.154;2024-03-06T08:21:29;7.90;77.60
74364;DHT22;62797;49.740;10.154;2024-03-06T08:24:15;7.90;78.50
74364;DHT22;62797;49.740;10.154;2024-03-06T08:27:01;7.90;78.50
74364;DHT22;62797;49.740;10.154;2024-03-06T08:29:39;7.90;77.20
74364;DHT22;62797;49.740;10.154;2024-03-06T08:32:11;7.90;78.40
74364;DHT22;62797;49.740;10.154;2024-03-06T08:34:43;7.90;77.70
74364;DHT22;62797;49.740;10.154;2024-03-06T08:37:18;7.80;77.20
74364;DHT22;62797;49.740;10.154;2024-03-06T08:39:53;7.30;77.80
74364;DHT22;62797;49.740;10.154;2024-03-06T08:42:25;7.80;77.70
74364;DHT22;62797;49.740;10.154;2024-03-06T08:44:58;7.80;78.10
74364;DHT22;62797;49.740;10.154;2024-03-06T08:47:30;7.80;77.80
74364;DHT22;62797;49.740;10.154;2024-03-06T08:50:07;7.90;79.00
74364;DHT22;62797;49.740;10.154;2024-03-06T08:52:40;8.10;78.80
74364;DHT22;62797;49.740;10.154;2024-03-06T08:55:15;8.10;78.70
74364;DHT22;62797;49.740;10.154;2024-03-06T08:57:48;8.20;80.10
74364;DHT22;62797;49.740;10.154;2024-03-06T09:00:22;8.40;80.10
74364;DHT22;62797;49.740;10.154;2024-03-06T09:02:54;8.40;79.00
74364;DHT22;62797;49.740;10.154;2024-03-06T09:05:26;8.50;78.40
74364;DHT22;62797;49.740;10.154;2024-03-06T09:08:06;8.70;77.80
74364;DHT22;62797;49.740;10.154;2024-03-06T09:10:38;8.70;77.80
74364;DHT22;62797;49.740;10.154;2024-03-06T09:13:10;8.80;77.70
74364;DHT22;62797;49.740;10.154;2024-03-06T09:15:42;8.90;77.40
74364;DHT22;62797;49.740;10.154;2024-03-06T09:18:15;8.90;76.50
74364;DHT22;62797;49.740;10.154;2024-03-06T09:20:48;9.00;77.30
74364;DHT22;62797;49.740;10.154;2024-03-06T09:23:20;9.10;77.00
74364;DHT22;62797;49.740;10.154;2024-03-06T09:25:53;9.20;76.20
74364;DHT22;62797;49.740;10.154;2024-03-06T09:28:28;9.30;76.40
74364;DHT22;62797;49.740;10.154;2024-03-06T09:31:05;9.40;77.50
74364;DHT22;62797;49.740;10.154;2024-03-06T09:33:39;9.50;77.80
74364;DHT22;62797;49.740;10.154;2024-03-06T09:36:14;9.60;75.50
74364;DHT22;62797;49.740;10.154;2024-03-06T09:38:46;9.60;75.00
74364;DHT22;62797;49.740;10.154;2024-03-06T09:41:21;9.70;73.00
74364;DHT22;62797;49.740;10.154;2024-03-06T09:43:53;9.60;72.80
74364;DHT22;62797;49.740;10.154;2024-03-06T09:46:26;9.60;71.00
74364;DHT22;62797;49.740;10.154;2024-03-06T09:48:59;9.70;76.00
74364;DHT22;62797;49.740;10.154;2024-03-06T09:51:31;9.80;73.60
74364;DHT22;62797;49.740;10.154;2024-03-06T09:54:06;10.00;73.70
74364;DHT22;62797;49.740;10.154;2024-03-06T09:56:43;10.00;72.20
74364;DHT22;62797;49.740;10.154;2024-03-06T09:59:16;10.00;71.90
74364;DHT22;62797;49.740;10.154;2024-03-06T10:01:56;10.10;73.00
74364;DHT22;62797;49.740;10.154;2024-03-06T10:04:32;10.30;72.10
74364;DHT22;62797;49.740;10.154;2024-03-06T10:07:13;10.30;70.60
74364;DHT22;62797;49.740;10.154;2024-03-06T10:09:47;10.20;69.50
74364;DHT22;62797;49.740;10.154;2024-03-06T10:12:21;10.00;67.80
74364;DHT22;62797;49.740;10.154;2024-03-06T10:14:53;10.10;70.00
74364;DHT22;62797;49.740;10.154;2024-03-06T10:17:26;10.10;70.20
74364;DHT22;62797;49.740;10.154;2024-03-06T10:20:21;10.10;69.80
74364;DHT22;62797;49.740;10.154;2024-03-06T10:22:58;10.20;70.50
74364;DHT22;62797;49.740;10.154;2024-03-06T10:25:30;10.30;69.60
74364;DHT22;62797;49.740;10.154;2024-03-06T10:28:10;10.30;69.60
74364;DHT22;62797;49.740;10.154;2024-03-06T10:30:46;10.30;68.80
74364;DHT22;62797;49.740;10.154;2024-03-06T10:36:32;10.10;69.10
74364;DHT22;62797;49.740;10.154;2024-03-06T10:39:06;10.10;69.80
74364;DHT22;62797;49.740;10.154;2024-03-06T10:41:40;10.20;69.90
74364;DHT22;62797;49.740;10.154;2024-03-06T10:44:14;10.10;69.00
74364;DHT22;62797;49.740;10.154;2024-03-06T10:46:58;10.10;69.90
74364;DHT22;62797;49.740;10.154;2024-03-06T10:49:33;10.10;69.30
74364;DHT22;62797;49.740;10.154;2024-03-06T10:52:06;10.00;68.90
74364;DHT22;62797;49.740;10.154;2024-03-06T10:54:39;10.00;68.10
74364;DHT22;62797;49.740;10.154;2024-03-06T10:57:14;10.00;68.90
74364;DHT22;62797;49.740;10.154;2024-03-06T10:59:46;10.00;69.10
74364;DHT22;62797;49.740;10.154;2024-03-06T11:02:20;10.00;68.30
74364;DHT22;62797;49.740;10.154;2024-03-06T11:04:54;10.00;69.50
74364;DHT22;62797;49.740;10.154;2024-03-06T11:07:26;10.20;70.00
74364;DHT22;62797;49.740;10.154;2024-03-06T11:09:59;10.30;70.20
74364;DHT22;62797;49.740;10.154;2024-03-06T11:12:36;10.30;68.70
74364;DHT22;62797;49.740;10.154;2024-03-06T11:15:14;10.40;67.70
74364;DHT22;62797;49.740;10.154;2024-03-06T11:17:47;10.40;68.10
74364;DHT22;62797;49.740;10.154;2024-03-06T11:20:21;10.40;67.70
74364;DHT22;62797;49.740;10.154;2024-03-06T11:28:26;10.20;66.80
74364;DHT22;62797;49.740;10.154;2024-03-06T11:31:10;10.10;66.90
74364;DHT22;62797;49.740;10.154;2024-03-06T11:33:53;10.10;67.40
74364;DHT22;62797;49.740;10.154;2024-03-06T11:36:28;10.20;67.10
74364;DHT22;62797;49.740;10.154;2024-03-06T11:46:09;10.20;65.50
74364;DHT22;62797;49.740;10.154;2024-03-06T11:48:53;10.30;68.10
74364;DHT22;62797;49.740;10.154;2024-03-06T11:51:26;10.40;67.60
74364;DHT22;62797;49.740;10.154;2024-03-06T11:53:58;10.50;67.60
74364;DHT22;62797;49.740;10.154;2024-03-06T11:56:31;10.60;68.20
74364;DHT22;62797;49.740;10.154;2024-03-06T11:59:03;10.70;66.10
74364;DHT22;62797;49.740;10.154;2024-03-06T12:01:42;10.90;67.20
74364;DHT22;62797;49.740;10.154;2024-03-06T12:04:14;11.10;66.00
74364;DHT22;62797;49.740;10.154;2024-03-06T12:06:46;11.10;65.20
74364;DHT22;62797;49.740;10.154;2024-03-06T12:09:18;11.20;62.80
74364;DHT22;62797;49.740;10.154;2024-03-06T12:11:50;11.30;63.00
74364;DHT22;62797;49.740;10.154;2024-03-06T12:14:22;11.30;61.30
74364;DHT22;62797;49.740;10.154;2024-03-06T12:16:59;11.30;60.30
74364;DHT22;62797;49.740;10.154;2024-03-06T12:19:36;11.40;59.20
74364;DHT22;62797;49.740;10.154;2024-03-06T12:25:37;11.50;60.20
74364;DHT22;62797;49.740;10.154;2024-03-06T12:28:12;11.40;56.90
74364;DHT22;62797;49.740;10.154;2024-03-06T12:30:48;11.50;56.80
74364;DHT22;62797;49.740;10.154;2024-03-06T12:36:31;11.40;56.40
74364;DHT22;62797;49.740;10.154;2024-03-06T12:39:04;11.40;58.10
74364;DHT22;62797;49.740;10.154;2024-03-06T12:41:44;11.50;55.60
74364;DHT22;62797;49.740;10.154;2024-03-06T12:44:19;11.50;56.20
74364;DHT22;62797;49.740;10.154;2024-03-06T12:46:58;11.60;54.10
74364;DHT22;62797;49.740;10.154;2024-03-06T12:49:30;11.70;55.60
74364;DHT22;62797;49.740;10.154;2024-03-06T12:52:02;11.80;56.00
74364;DHT22;62797;49.740;10.154;2024-03-06T12:54:36;11.90;56.40
74364;DHT22;62797;49.740;10.154;2024-03-06T12:57:08;12.00;56.20
74364;DHT22;62797;49.740;10.154;2024-03-06T12:59:40;11.90;53.70
74364;DHT22;62797;49.740;10.154;2024-03-06T13:02:13;11.60;53.20
74364;DHT22;62797;49.740;10.154;2024-03-06T13:04:48;11.40;55.40
74364;DHT22;62797;49.740;10.154;2024-03-06T13:07:20;11.40;56.10
74364;DHT22;62797;49.740;10.154;2024-03-06T13:09:52;11.30;55.80
74364;DHT22;62797;49.740;10.154;2024-03-06T13:12:24;11.20;55.80
74364;DHT22;62797;49.740;10.154;2024-03-06T13:14:56;11.10;56.50
74364;DHT22;62797;49.740;10.154;2024-03-06T13:17:28;11.20;57.10
74364;DHT22;62797;49.740;10.154;2024-03-06T13:20:01;11.10;56.60
74364;DHT22;62797;49.740;10.154;2024-03-06T13:22:34;11.20;56.70
74364;DHT22;62797;49.740;10.154;2024-03-06T13:25:07;11.20;56.20
74364;DHT22;62797;49.740;10.154;2024-03-06T13:27:39;11.20;55.10
74364;DHT22;62797;49.740;10.154;2024-03-06T13:30:14;11.20;55.80
74364;DHT22;62797;49.740;10.154;2024-03-06T13:32:48;11.30;57.00
74364;DHT22;62797;49.740;10.154;2024-03-06T13:35:20;11.30;56.50
74364;DHT22;62797;49.740;10.154;2024-03-06T13:37:52;11.40;55.50
74364;DHT22;62797;49.740;10.154;2024-03-06T13:40:25;11.50;56.20
74364;DHT22;62797;49.740;10.154;2024-03-06T13:42:58;11.60;54.20
74364;DHT22;62797;49.740;10.154;2024-03-06T13:45:31;11.70;55.20
74364;DHT22;62797;49.740;10.154;2024-03-06T13:48:14;11.80;53.40
74364;DHT22;62797;49.740;10.154;2024-03-06T13:50:50;11.90;53.80
74364;DHT22;62797;49.740;10.154;2024-03-06T13:53:22;11.90;50.80
74364;DHT22;62797;49.740;10.154;2024-03-06T13:55:55;11.90;52.40
74364;DHT22;62797;49.740;10.154;2024-03-06T13:58:27;11.90;51.40
74364;DHT22;62797;49.740;10.154;2024-03-06T14:00:59;12.00;52.60
74364;DHT22;62797;49.740;10.154;2024-03-06T14:03:31;12.20;52.90
74364;DHT22;62797;49.740;10.154;2024-03-06T14:06:05;12.30;48.10
74364;DHT22;62797;49.740;10.154;2024-03-06T14:08:40;12.30;47.40
74364;DHT22;62797;49.740;10.154;2024-03-06T14:11:13;12.40;48.00
74364;DHT22;62797;49.740;10.154;2024-03-06T14:13:46;12.40;49.40
74364;DHT22;62797;49.740;10.154;2024-03-06T14:16:18;12.50;47.30
74364;DHT22;62797;49.740;10.154;2024-03-06T14:18:50;12.50;43.70
74364;DHT22;62797;49.740;10.154;2024-03-06T14:21:22;12.50;43.70
74364;DHT22;62797;49.740;10.154;2024-03-06T14:23:54;12.60;46.40
74364;DHT22;62797;49.740;10.154;2024-03-06T14:26:30;12.50;42.20
74364;DHT22;62797;49.740;10.154;2024-03-06T14:29:05;12.30;43.80
74364;DHT22;62797;49.740;10.154;2024-03-06T14:31:39;12.30;46.80
74364;DHT22;62797;49.740;10.154;2024-03-06T14:34:11;12.70;44.60
74364;DHT22;62797;49.740;10.154;2024-03-06T14:36:43;13.10;42.20
74364;DHT22;62797;49.740;10.154;2024-03-06T14:39:15;13.90;44.40
74364;DHT22;62797;49.740;10.154;2024-03-06T14:41:47;14.30;38.30
74364;DHT22;62797;49.740;10.154;2024-03-06T14:44:20;15.00;39.70
74364;DHT22;62797;49.740;10.154;2024-03-06T14:46:52;15.00;34.60
74364;DHT22;62797;49.740;10.154;2024-03-06T14:49:27;15.10;34.20
74364;DHT22;62797;49.740;10.154;2024-03-06T14:51:59;15.30;31.20
74364;DHT22;62797;49.740;10.154;2024-03-06T14:54:31;15.20;32.80
74364;DHT22;62797;49.740;10.154;2024-03-06T14:57:03;15.10;29.90
74364;DHT22;62797;49.740;10.154;2024-03-06T14:59:37;14.70;28.80
74364;DHT22;62797;49.740;10.154;2024-03-06T15:02:09;14.30;31.40
74364;DHT22;62797;49.740;10.154;2024-03-06T15:04:41;14.10;32.50
74364;DHT22;62797;49.740;10.154;2024-03-06T15:07:13;14.20;34.60
74364;DHT22;62797;49.740;10.154;2024-03-06T15:09:45;14.10;32.30
74364;DHT22;62797;49.740;10.154;2024-03-06T15:12:18;14.00;30.80
74364;DHT22;62797;49.740;10.154;2024-03-06T15:14:53;13.80;32.80
74364;DHT22;62797;49.740;10.154;2024-03-06T15:17:28;13.70;33.00
74364;DHT22;62797;49.740;10.154;2024-03-06T15:20:00;13.90;31.70
74364;DHT22;62797;49.740;10.154;2024-03-06T15:22:32;13.80;30.40
74364;DHT22;62797;49.740;10.154;2024-03-06T15:25:05;13.50;30.00
74364;DHT22;62797;49.740;10.154;2024-03-06T15:27:38;13.30;30.90
74364;DHT22;62797;49.740;10.154;2024-03-06T15:30:10;13.20;33.20
74364;DHT22;62797;49.740;10.154;2024-03-06T15:32:44;13.10;31.20
74364;DHT22;62797;49.740;10.154;2024-03-06T15:35:16;13.10;32.50
74364;DHT22;62797;49.740;10.154;2024-03-06T15:37:48;13.00;31.20
74364;DHT22;62797;49.740;10.154;2024-03-06T15:40:21;12.70;33.20
74364;DHT22;62797;49.740;10.154;2024-03-06T15:42:55;12.90;35.30
74364;DHT22;62797;49.740;10.154;2024-03-06T15:45:28;13.00;32.00
74364;DHT22;62797;49.740;10.154;2024-03-06T15:48:07;12.90;32.50
74364;DHT22;62797;49.740;10.154;2024-03-06T15:50:43;12.90;32.30
74364;DHT22;62797;49.740;10.154;2024-03-06T15:53:15;12.90;33.30
74364;DHT22;62797;49.740;10.154;2024-03-06T15:55:47;12.60;33.20
74364;DHT22;62797;49.740;10.154;2024-03-06T15:58:19;12.60;34.30
74364;DHT22;62797;49.740;10.154;2024-03-06T16:00:51;12.40;33.20
74364;DHT22;62797;49.740;10.154;2024-03-06T16:03:23;12.20;34.80
74364;DHT22;62797;49.740;10.154;2024-03-06T16:05:55;12.00;34.50
74364;DHT22;62797;49.740;10.154;2024-03-06T16:08:27;11.80;35.00
74364;DHT22;62797;49.740;10.154;2024-03-06T16:11:01;11.70;36.40
74364;DHT22;62797;49.740;10.154;2024-03-06T16:13:33;11.50;35.50
74364;DHT22;62797;49.740;10.154;2024-03-06T16:16:06;11.30;36.50
74364;DHT22;62797;49.740;10.154;2024-03-06T16:18:38;11.30;36.70
74364;DHT22;62797;49.740;10.154;2024-03-06T16:21:10;11.20;36.10
74364;DHT22;62797;49.740;10.154;2024-03-06T16:23:45;11.00;37.40
74364;DHT22;62797;49.740;10.154;2024-03-06T16:26:18;11.00;37.60
74364;DHT22;62797;49.740;10.154;2024-03-06T16:28:50;10.80;37.80
74364;DHT22;62797;49.740;10.154;2024-03-06T16:31:22;10.70;37.80